sensor_id;sensor_type;location;lat;lon;timestamp;P1;durP1;ratioP1;P2;durP2;ratioP2
19842;SDS011;10082;51.038;6.992;2023-07-31T00:00:04;6.82;;;4.22;;
19842;SDS011;10082;51.038;6.992;2023-07-31T00:02:34;7.80;;;4.60;;
19842;SDS011;10082;51.038;6.992;2023-07-31T00:05:01;6.55;;;4.18;;
19842;SDS011;10082;51.038;6.992;2023-07-31T00:07:31;6.32;;;3.97;;
19842;SDS011;10082;51.038;6.992;2023-07-31T00:09:58;5.40;;;4.07;;
19842;SDS011;10082;51.038;6.992;2023-07-31T00:12:28;6.35;;;3.97;;
19842;SDS011;10082;51.038;6.992;2023-07-31T00:14:55;5.47;;;4.28;;
19842;SDS011;10082;51.038;6.992;2023-07-31T00:17:22;8.52;;;4.32;;
19842;SDS011;10082;51.038;6.992;2023-07-31T00:19:52;7.85;;;4.80;;
19842;SDS011;10082;51.038;6.992;2023-07-31T00:22:19;4.72;;;3.65;;
19842;SDS011;10082;51.038;6.992;2023-07-31T00:24:52;6.93;;;4.50;;
19842;SDS011;10082;51.038;6.992;2023-07-31T00:27:22;5.93;;;3.92;;
19842;SDS011;10082;51.038;6.992;2023-07-31T00:29:53;7.93;;;4.40;;
19842;SDS011;10082;51.038;6.992;2023-07-31T00:32:20;5.70;;;3.78;;
19842;SDS011;10082;51.038;6.992;2023-07-31T00:34:47;9.05;;;4.32;;
19842;SDS011;10082;51.038;6.992;2023-07-31T00:37:14;6.40;;;4.10;;
19842;SDS011;10082;51.038;6.992;2023-07-31T00:39:44;5.53;;;4.00;;
19842;SDS011;10082;51.038;6.992;2023-07-31T00:42:13;5.57;;;4.20;;
19842;SDS011;10082;51.038;6.992;2023-07-31T00:44:40;5.63;;;4.03;;
19842;SDS011;10082;51.038;6.992;2023-07-31T00:47:07;5.35;;;3.88;;
19842;SDS011;10082;51.038;6.992;2023-07-31T00:49:35;4.90;;;3.97;;
19842;SDS011;10082;51.038;6.992;2023-07-31T00:52:02;6.50;;;3.47;;
19842;SDS011;10082;51.038;6.992;2023-07-31T00:54:31;6.22;;;4.07;;
19842;SDS011;10082;51.038;6.992;2023-07-31T00:56:59;4.35;;;3.78;;
19842;SDS011;10082;51.038;6.992;2023-07-31T00:59:29;5.75;;;3.85;;
19842;SDS011;10082;51.038;6.992;2023-07-31T01:01:59;4.63;;;3.92;;
19842;SDS011;10082;51.038;6.992;2023-07-31T01:04:27;6.78;;;3.85;;
19842;SDS011;10082;51.038;6.992;2023-07-31T01:06:56;5.22;;;3.83;;
19842;SDS011;10082;51.038;6.992;2023-07-31T01:09:29;5.80;;;3.47;;
19842;SDS011;10082;51.038;6.992;2023-07-31T01:12:03;5.85;;;3.65;;
19842;SDS011;10082;51.038;6.992;2023-07-31T01:14:34;5.55;;;3.05;;
19842;SDS011;10082;51.038;6.992;2023-07-31T01:17:02;4.97;;;3.10;;
19842;SDS011;10082;51.038;6.992;2023-07-31T01:19:30;6.07;;;3.88;;
19842;SDS011;10082;51.038;6.992;2023-07-31T01:24:59;6.85;;;3.60;;
19842;SDS011;10082;51.038;6.992;2023-07-31T01:27:48;3.75;;;3.17;;
19842;SDS011;10082;51.038;6.992;2023-07-31T01:30:22;6.38;;;3.70;;
19842;SDS011;10082;51.038;6.992;2023-07-31T01:32:54;5.10;;;3.28;;
19842;SDS011;10082;51.038;6.992;2023-07-31T01:35:24;8.63;;;3.58;;
19842;SDS011;10082;51.038;6.992;2023-07-31T01:37:52;7.55;;;3.75;;
19842;SDS011;10082;51.038;6.992;2023-07-31T01:40:20;5.43;;;3.25;;
19842;SDS011;10082;51.038;6.992;2023-07-31T01:42:48;5.63;;;3.30;;
19842;SDS011;10082;51.038;6.992;2023-07-31T01:45:16;6.07;;;3.75;;
19842;SDS011;10082;51.038;6.992;2023-07-31T01:47:43;5.03;;;3.28;;
19842;SDS011;10082;51.038;6.992;2023-07-31T01:50:11;6.30;;;3.45;;
19842;SDS011;10082;51.038;6.992;2023-07-31T01:52:38;8.82;;;4.13;;
19842;SDS011;10082;51.038;6.992;2023-07-31T01:55:07;4.95;;;3.40;;
19842;SDS011;10082;51.038;6.992;2023-07-31T01:57:36;4.97;;;3.28;;
19842;SDS011;10082;51.038;6.992;2023-07-31T02:00:05;6.20;;;3.25;;
19842;SDS011;10082;51.038;6.992;2023-07-31T02:02:39;6.28;;;3.63;;
19842;SDS011;10082;51.038;6.992;2023-07-31T02:05:06;4.55;;;3.30;;
19842;SDS011;10082;51.038;6.992;2023-07-31T02:07:34;6.25;;;3.65;;
19842;SDS011;10082;51.038;6.992;2023-07-31T02:10:04;7.28;;;3.72;;
19842;SDS011;10082;51.038;6.992;2023-07-31T02:12:34;6.45;;;3.30;;
19842;SDS011;10082;51.038;6.992;2023-07-31T02:15:02;6.07;;;3.50;;
19842;SDS011;10082;51.038;6.992;2023-07-31T02:17:31;9.18;;;3.60;;
19842;SDS011;10082;51.038;6.992;2023-07-31T02:19:59;7.25;;;3.80;;
19842;SDS011;10082;51.038;6.992;2023-07-31T02:22:27;5.82;;;3.53;;
19842;SDS011;10082;51.038;6.992;2023-07-31T02:24:55;3.95;;;3.40;;
19842;SDS011;10082;51.038;6.992;2023-07-31T02:27:22;4.90;;;3.10;;
19842;SDS011;10082;51.038;6.992;2023-07-31T02:29:52;4.97;;;3.25;;
19842;SDS011;10082;51.038;6.992;2023-07-31T02:32:24;5.55;;;3.25;;
19842;SDS011;10082;51.038;6.992;2023-07-31T02:34:53;6.80;;;3.58;;
19842;SDS011;10082;51.038;6.992;2023-07-31T02:37:20;4.30;;;3.20;;
19842;SDS011;10082;51.038;6.992;2023-07-31T02:39:48;7.63;;;3.95;;
19842;SDS011;10082;51.038;6.992;2023-07-31T02:42:15;6.32;;;3.20;;
19842;SDS011;10082;51.038;6.992;2023-07-31T02:44:42;5.05;;;3.50;;
19842;SDS011;10082;51.038;6.992;2023-07-31T02:47:10;6.13;;;3.10;;
19842;SDS011;10082;51.038;6.992;2023-07-31T02:49:39;6.20;;;3.70;;
19842;SDS011;10082;51.038;6.992;2023-07-31T02:52:08;5.03;;;3.63;;
19842;SDS011;10082;51.038;6.992;2023-07-31T02:54:35;5.60;;;3.50;;
19842;SDS011;10082;51.038;6.992;2023-07-31T02:57:03;6.13;;;3.75;;
19842;SDS011;10082;51.038;6.992;2023-07-31T02:59:30;4.90;;;3.50;;
19842;SDS011;10082;51.038;6.992;2023-07-31T03:01:57;6.38;;;3.80;;
19842;SDS011;10082;51.038;6.992;2023-07-31T03:04:25;4.78;;;3.60;;
19842;SDS011;10082;51.038;6.992;2023-07-31T03:06:52;6.10;;;3.80;;
19842;SDS011;10082;51.038;6.992;2023-07-31T03:09:21;5.68;;;3.78;;
19842;SDS011;10082;51.038;6.992;2023-07-31T03:11:49;4.47;;;3.22;;
19842;SDS011;10082;51.038;6.992;2023-07-31T03:14:16;4.75;;;3.50;;
19842;SDS011;10082;51.038;6.992;2023-07-31T03:16:44;6.35;;;3.72;;
19842;SDS011;10082;51.038;6.992;2023-07-31T03:19:15;6.78;;;4.07;;
19842;SDS011;10082;51.038;6.992;2023-07-31T03:21:42;8.63;;;4.10;;
19842;SDS011;10082;51.038;6.992;2023-07-31T03:24:10;6.20;;;3.58;;
19842;SDS011;10082;51.038;6.992;2023-07-31T03:26:42;4.95;;;3.25;;
19842;SDS011;10082;51.038;6.992;2023-07-31T03:29:10;6.82;;;3.67;;
19842;SDS011;10082;51.038;6.992;2023-07-31T03:31:37;5.65;;;3.50;;
19842;SDS011;10082;51.038;6.992;2023-07-31T03:34:04;6.97;;;4.35;;
19842;SDS011;10082;51.038;6.992;2023-07-31T03:36:32;6.10;;;3.70;;
19842;SDS011;10082;51.038;6.992;2023-07-31T03:38:59;5.13;;;3.70;;
19842;SDS011;10082;51.038;6.992;2023-07-31T03:41:27;7.35;;;3.75;;
19842;SDS011;10082;51.038;6.992;2023-07-31T03:43:57;6.60;;;4.10;;
19842;SDS011;10082;51.038;6.992;2023-07-31T03:46:24;5.53;;;3.25;;
19842;SDS011;10082;51.038;6.992;2023-07-31T03:48:54;7.00;;;4.15;;
19842;SDS011;10082;51.038;6.992;2023-07-31T03:51:24;8.95;;;4.35;;
19842;SDS011;10082;51.038;6.992;2023-07-31T03:53:52;7.25;;;3.92;;
19842;SDS011;10082;51.038;6.992;2023-07-31T03:56:19;8.05;;;4.30;;
19842;SDS011;10082;51.038;6.992;2023-07-31T03:58:46;6.18;;;4.05;;
19842;SDS011;10082;51.038;6.992;2023-07-31T04:01:15;5.72;;;3.70;;
19842;SDS011;10082;51.038;6.992;2023-07-31T04:03:43;4.88;;;3.83;;
19842;SDS011;10082;51.038;6.992;2023-07-31T04:06:10;6.55;;;4.40;;
19842;SDS011;10082;51.038;6.992;2023-07-31T04:08:38;8.25;;;3.90;;
19842;SDS011;10082;51.038;6.992;2023-07-31T04:11:05;6.82;;;4.30;;
19842;SDS011;10082;51.038;6.992;2023-07-31T04:13:32;6.00;;;3.83;;
19842;SDS011;10082;51.038;6.992;2023-07-31T04:16:00;5.57;;;4.05;;
19842;SDS011;10082;51.038;6.992;2023-07-31T04:18:28;5.10;;;4.13;;
19842;SDS011;10082;51.038;6.992;2023-07-31T04:20:56;5.93;;;4.40;;
19842;SDS011;10082;51.038;6.992;2023-07-31T04:23:29;5.18;;;4.20;;
19842;SDS011;10082;51.038;6.992;2023-07-31T04:26:00;5.85;;;4.13;;
19842;SDS011;10082;51.038;6.992;2023-07-31T04:28:27;7.55;;;4.72;;
19842;SDS011;10082;51.038;6.992;2023-07-31T04:30:57;6.72;;;4.35;;
19842;SDS011;10082;51.038;6.992;2023-07-31T04:33:25;7.10;;;4.47;;
19842;SDS011;10082;51.038;6.992;2023-07-31T04:35:54;5.55;;;4.35;;
19842;SDS011;10082;51.038;6.992;2023-07-31T04:38:21;6.72;;;4.28;;
19842;SDS011;10082;51.038;6.992;2023-07-31T04:40:49;6.57;;;4.20;;
19842;SDS011;10082;51.038;6.992;2023-07-31T04:43:16;6.40;;;4.70;;
19842;SDS011;10082;51.038;6.992;2023-07-31T04:45:45;5.72;;;4.25;;
19842;SDS011;10082;51.038;6.992;2023-07-31T04:48:13;6.35;;;4.40;;
19842;SDS011;10082;51.038;6.992;2023-07-31T04:50:45;6.50;;;4.30;;
19842;SDS011;10082;51.038;6.992;2023-07-31T04:56:01;7.40;;;4.70;;
19842;SDS011;10082;51.038;6.992;2023-07-31T04:58:29;5.70;;;4.07;;
19842;SDS011;10082;51.038;6.992;2023-07-31T05:00:57;5.63;;;4.40;;
19842;SDS011;10082;51.038;6.992;2023-07-31T05:03:24;5.65;;;4.30;;
19842;SDS011;10082;51.038;6.992;2023-07-31T05:05:52;4.85;;;4.28;;
19842;SDS011;10082;51.038;6.992;2023-07-31T05:08:19;6.70;;;4.45;;
19842;SDS011;10082;51.038;6.992;2023-07-31T05:10:47;4.88;;;3.95;;
19842;SDS011;10082;51.038;6.992;2023-07-31T05:13:16;6.43;;;4.25;;
19842;SDS011;10082;51.038;6.992;2023-07-31T05:15:50;6.00;;;4.43;;
19842;SDS011;10082;51.038;6.992;2023-07-31T05:18:19;4.95;;;4.35;;
19842;SDS011;10082;51.038;6.992;2023-07-31T05:20:47;6.15;;;4.68;;
19842;SDS011;10082;51.038;6.992;2023-07-31T05:23:14;6.05;;;4.55;;
19842;SDS011;10082;51.038;6.992;2023-07-31T05:25:45;5.88;;;4.22;;
19842;SDS011;10082;51.038;6.992;2023-07-31T05:28:13;5.22;;;4.10;;
19842;SDS011;10082;51.038;6.992;2023-07-31T05:30:42;6.93;;;4.20;;
19842;SDS011;10082;51.038;6.992;2023-07-31T05:33:10;4.32;;;3.75;;
19842;SDS011;10082;51.038;6.992;2023-07-31T05:35:41;5.30;;;3.80;;
19842;SDS011;10082;51.038;6.992;2023-07-31T05:38:13;6.45;;;3.92;;
19842;SDS011;10082;51.038;6.992;2023-07-31T05:40:42;4.25;;;3.72;;
19842;SDS011;10082;51.038;6.992;2023-07-31T05:43:09;5.68;;;4.00;;
19842;SDS011;10082;51.038;6.992;2023-07-31T05:45:36;5.72;;;4.18;;
19842;SDS011;10082;51.038;6.992;2023-07-31T05:48:07;4.45;;;3.92;;
19842;SDS011;10082;51.038;6.992;2023-07-31T05:50:34;5.38;;;3.97;;
19842;SDS011;10082;51.038;6.992;2023-07-31T05:53:02;5.78;;;4.00;;
19842;SDS011;10082;51.038;6.992;2023-07-31T05:55:34;4.88;;;4.05;;
19842;SDS011;10082;51.038;6.992;2023-07-31T05:58:01;5.45;;;4.03;;
19842;SDS011;10082;51.038;6.992;2023-07-31T06:00:29;8.10;;;4.13;;
19842;SDS011;10082;51.038;6.992;2023-07-31T06:02:56;4.88;;;3.78;;
19842;SDS011;10082;51.038;6.992;2023-07-31T06:05:28;5.72;;;4.20;;
19842;SDS011;10082;51.038;6.992;2023-07-31T06:07:56;5.55;;;4.47;;
19842;SDS011;10082;51.038;6.992;2023-07-31T06:10:23;6.07;;;4.22;;
19842;SDS011;10082;51.038;6.992;2023-07-31T06:12:51;5.72;;;4.68;;
19842;SDS011;10082;51.038;6.992;2023-07-31T06:15:19;8.18;;;5.15;;
19842;SDS011;10082;51.038;6.992;2023-07-31T06:17:46;6.40;;;5.50;;
19842;SDS011;10082;51.038;6.992;2023-07-31T06:20:14;5.93;;;4.60;;
19842;SDS011;10082;51.038;6.992;2023-07-31T06:22:49;6.80;;;4.90;;
19842;SDS011;10082;51.038;6.992;2023-07-31T06:25:17;10.20;;;7.22;;
19842;SDS011;10082;51.038;6.992;2023-07-31T06:27:48;9.48;;;6.88;;
19842;SDS011;10082;51.038;6.992;2023-07-31T06:30:16;8.05;;;6.28;;
19842;SDS011;10082;51.038;6.992;2023-07-31T06:32:46;12.57;;;9.18;;
19842;SDS011;10082;51.038;6.992;2023-07-31T06:35:14;16.20;;;10.63;;
19842;SDS011;10082;51.038;6.992;2023-07-31T06:37:42;13.05;;;8.38;;
19842;SDS011;10082;51.038;6.992;2023-07-31T06:40:11;12.02;;;8.48;;
19842;SDS011;10082;51.038;6.992;2023-07-31T06:42:38;13.15;;;8.35;;
19842;SDS011;10082;51.038;6.992;2023-07-31T06:45:06;10.20;;;8.20;;
19842;SDS011;10082;51.038;6.992;2023-07-31T06:47:34;10.27;;;7.43;;
19842;SDS011;10082;51.038;6.992;2023-07-31T06:50:02;11.02;;;7.13;;
19842;SDS011;10082;51.038;6.992;2023-07-31T06:52:29;7.95;;;6.15;;
19842;SDS011;10082;51.038;6.992;2023-07-31T06:55:03;8.85;;;5.70;;
19842;SDS011;10082;51.038;6.992;2023-07-31T06:57:32;6.20;;;5.43;;
19842;SDS011;10082;51.038;6.992;2023-07-31T07:00:00;6.80;;;5.15;;
19842;SDS011;10082;51.038;6.992;2023-07-31T07:02:27;6.68;;;4.75;;
19842;SDS011;10082;51.038;6.992;2023-07-31T07:04:54;7.97;;;5.65;;
19842;SDS011;10082;51.038;6.992;2023-07-31T07:07:23;5.88;;;5.28;;
19842;SDS011;10082;51.038;6.992;2023-07-31T07:09:50;7.75;;;4.65;;
19842;SDS011;10082;51.038;6.992;2023-07-31T07:12:17;5.38;;;4.30;;
19842;SDS011;10082;51.038;6.992;2023-07-31T07:14:46;8.32;;;4.75;;
19842;SDS011;10082;51.038;6.992;2023-07-31T07:17:13;7.63;;;4.80;;
19842;SDS011;10082;51.038;6.992;2023-07-31T07:19:41;5.82;;;4.63;;
19842;SDS011;10082;51.038;6.992;2023-07-31T07:22:08;6.22;;;4.40;;
19842;SDS011;10082;51.038;6.992;2023-07-31T07:24:35;7.10;;;5.00;;
19842;SDS011;10082;51.038;6.992;2023-07-31T07:27:03;6.53;;;4.60;;
19842;SDS011;10082;51.038;6.992;2023-07-31T07:29:30;9.55;;;5.00;;
19842;SDS011;10082;51.038;6.992;2023-07-31T07:31:58;7.47;;;5.03;;
19842;SDS011;10082;51.038;6.992;2023-07-31T07:34:26;5.85;;;4.25;;
19842;SDS011;10082;51.038;6.992;2023-07-31T07:36:54;7.00;;;4.70;;
19842;SDS011;10082;51.038;6.992;2023-07-31T07:39:21;8.00;;;5.80;;
19842;SDS011;10082;51.038;6.992;2023-07-31T07:41:49;5.25;;;4.60;;
19842;SDS011;10082;51.038;6.992;2023-07-31T07:44:16;7.75;;;5.90;;
19842;SDS011;10082;51.038;6.992;2023-07-31T07:46:43;7.78;;;6.10;;
19842;SDS011;10082;51.038;6.992;2023-07-31T07:49:12;9.23;;;5.57;;
19842;SDS011;10082;51.038;6.992;2023-07-31T07:51:42;7.80;;;4.97;;
19842;SDS011;10082;51.038;6.992;2023-07-31T07:54:09;7.78;;;5.72;;
19842;SDS011;10082;51.038;6.992;2023-07-31T07:56:37;7.05;;;5.72;;
19842;SDS011;10082;51.038;6.992;2023-07-31T07:59:04;7.63;;;5.65;;
19842;SDS011;10082;51.038;6.992;2023-07-31T08:01:31;8.02;;;5.32;;
19842;SDS011;10082;51.038;6.992;2023-07-31T08:03:58;7.40;;;5.13;;
19842;SDS011;10082;51.038;6.992;2023-07-31T08:06:28;7.70;;;5.18;;
19842;SDS011;10082;51.038;6.992;2023-07-31T08:08:55;7.05;;;5.15;;
19842;SDS011;10082;51.038;6.992;2023-07-31T08:11:23;7.97;;;5.40;;
19842;SDS011;10082;51.038;6.992;2023-07-31T08:13:51;10.27;;;6.28;;
19842;SDS011;10082;51.038;6.992;2023-07-31T08:16:18;10.48;;;5.43;;
19842;SDS011;10082;51.038;6.992;2023-07-31T08:18:47;6.85;;;5.32;;
19842;SDS011;10082;51.038;6.992;2023-07-31T08:21:14;7.53;;;4.97;;
19842;SDS011;10082;51.038;6.992;2023-07-31T08:23:43;9.75;;;4.72;;
19842;SDS011;10082;51.038;6.992;2023-07-31T08:26:14;5.30;;;3.95;;
19842;SDS011;10082;51.038;6.992;2023-07-31T08:28:45;7.65;;;4.35;;
19842;SDS011;10082;51.038;6.992;2023-07-31T08:31:13;5.15;;;4.05;;
19842;SDS011;10082;51.038;6.992;2023-07-31T08:33:41;5.80;;;3.75;;
19842;SDS011;10082;51.038;6.992;2023-07-31T08:36:10;5.13;;;3.60;;
19842;SDS011;10082;51.038;6.992;2023-07-31T08:38:37;5.07;;;4.20;;
19842;SDS011;10082;51.038;6.992;2023-07-31T08:41:05;5.63;;;4.07;;
19842;SDS011;10082;51.038;6.992;2023-07-31T08:43:33;7.30;;;5.15;;
19842;SDS011;10082;51.038;6.992;2023-07-31T08:46:02;6.35;;;4.32;;
19842;SDS011;10082;51.038;6.992;2023-07-31T08:48:30;7.55;;;6.03;;
19842;SDS011;10082;51.038;6.992;2023-07-31T08:50:58;6.10;;;4.30;;
19842;SDS011;10082;51.038;6.992;2023-07-31T08:53:26;5.43;;;4.60;;
19842;SDS011;10082;51.038;6.992;2023-07-31T08:55:53;5.28;;;4.80;;
19842;SDS011;10082;51.038;6.992;2023-07-31T08:58:26;5.65;;;4.45;;
19842;SDS011;10082;51.038;6.992;2023-07-31T09:00:55;5.63;;;4.70;;
19842;SDS011;10082;51.038;6.992;2023-07-31T09:03:25;5.55;;;4.75;;
19842;SDS011;10082;51.038;6.992;2023-07-31T09:05:52;7.20;;;5.07;;
19842;SDS011;10082;51.038;6.992;2023-07-31T09:08:21;7.05;;;4.30;;
19842;SDS011;10082;51.038;6.992;2023-07-31T09:10:48;4.50;;;3.95;;
19842;SDS011;10082;51.038;6.992;2023-07-31T09:13:16;5.70;;;4.35;;
19842;SDS011;10082;51.038;6.992;2023-07-31T09:15:45;7.55;;;5.07;;
19842;SDS011;10082;51.038;6.992;2023-07-31T09:18:13;7.38;;;4.53;;
19842;SDS011;10082;51.038;6.992;2023-07-31T09:20:44;5.50;;;4.50;;
19842;SDS011;10082;51.038;6.992;2023-07-31T09:23:11;5.70;;;3.80;;
19842;SDS011;10082;51.038;6.992;2023-07-31T09:25:43;5.07;;;3.10;;
19842;SDS011;10082;51.038;6.992;2023-07-31T09:28:11;4.45;;;3.22;;
19842;SDS011;10082;51.038;6.992;2023-07-31T09:30:48;4.43;;;3.05;;
19842;SDS011;10082;51.038;6.992;2023-07-31T09:33:17;3.58;;;2.80;;
19842;SDS011;10082;51.038;6.992;2023-07-31T09:35:46;5.47;;;2.97;;
19842;SDS011;10082;51.038;6.992;2023-07-31T09:38:15;3.40;;;2.72;;
19842;SDS011;10082;51.038;6.992;2023-07-31T09:40:44;3.00;;;2.75;;
19842;SDS011;10082;51.038;6.992;2023-07-31T09:43:12;3.83;;;2.90;;
19842;SDS011;10082;51.038;6.992;2023-07-31T09:45:43;3.42;;;2.90;;
19842;SDS011;10082;51.038;6.992;2023-07-31T09:48:13;4.13;;;3.15;;
19842;SDS011;10082;51.038;6.992;2023-07-31T09:50:43;5.20;;;3.13;;
19842;SDS011;10082;51.038;6.992;2023-07-31T09:53:11;4.00;;;3.00;;
19842;SDS011;10082;51.038;6.992;2023-07-31T09:55:39;5.50;;;3.80;;
19842;SDS011;10082;51.038;6.992;2023-07-31T09:58:08;4.43;;;3.63;;
19842;SDS011;10082;51.038;6.992;2023-07-31T10:00:36;5.25;;;3.38;;
19842;SDS011;10082;51.038;6.992;2023-07-31T10:03:04;4.15;;;3.05;;
19842;SDS011;10082;51.038;6.992;2023-07-31T10:05:34;3.53;;;3.22;;
19842;SDS011;10082;51.038;6.992;2023-07-31T10:08:03;3.63;;;3.10;;
19842;SDS011;10082;51.038;6.992;2023-07-31T10:10:30;4.97;;;3.80;;
19842;SDS011;10082;51.038;6.992;2023-07-31T10:12:59;4.22;;;3.17;;
19842;SDS011;10082;51.038;6.992;2023-07-31T10:15:27;5.38;;;3.20;;
19842;SDS011;10082;51.038;6.992;2023-07-31T10:17:57;3.97;;;3.03;;
19842;SDS011;10082;51.038;6.992;2023-07-31T10:20:25;3.20;;;2.90;;
19842;SDS011;10082;51.038;6.992;2023-07-31T10:22:56;3.10;;;2.80;;
19842;SDS011;10082;51.038;6.992;2023-07-31T10:25:24;2.92;;;2.63;;
19842;SDS011;10082;51.038;6.992;2023-07-31T10:27:53;4.85;;;3.03;;
19842;SDS011;10082;51.038;6.992;2023-07-31T10:30:22;5.55;;;2.80;;
19842;SDS011;10082;51.038;6.992;2023-07-31T10:32:54;4.32;;;3.00;;
19842;SDS011;10082;51.038;6.992;2023-07-31T10:35:24;3.60;;;2.78;;
19842;SDS011;10082;51.038;6.992;2023-07-31T10:37:52;5.85;;;2.75;;
19842;SDS011;10082;51.038;6.992;2023-07-31T10:40:23;3.00;;;2.60;;
19842;SDS011;10082;51.038;6.992;2023-07-31T10:42:52;3.92;;;3.42;;
19842;SDS011;10082;51.038;6.992;2023-07-31T10:45:24;3.70;;;2.85;;
19842;SDS011;10082;51.038;6.992;2023-07-31T10:47:57;4.55;;;3.47;;
19842;SDS011;10082;51.038;6.992;2023-07-31T10:50:27;4.03;;;3.00;;
19842;SDS011;10082;51.038;6.992;2023-07-31T10:52:58;3.75;;;2.83;;
19842;SDS011;10082;51.038;6.992;2023-07-31T10:55:28;3.63;;;3.00;;
19842;SDS011;10082;51.038;6.992;2023-07-31T10:57:58;4.00;;;2.95;;
19842;SDS011;10082;51.038;6.992;2023-07-31T11:00:32;3.60;;;3.17;;
19842;SDS011;10082;51.038;6.992;2023-07-31T11:03:03;3.08;;;2.78;;
19842;SDS011;10082;51.038;6.992;2023-07-31T11:05:45;3.90;;;3.03;;
19842;SDS011;10082;51.038;6.992;2023-07-31T11:08:14;4.47;;;2.40;;
19842;SDS011;10082;51.038;6.992;2023-07-31T11:10:45;3.53;;;2.70;;
19842;SDS011;10082;51.038;6.992;2023-07-31T11:13:13;3.22;;;2.47;;
19842;SDS011;10082;51.038;6.992;2023-07-31T11:15:44;3.42;;;2.42;;
19842;SDS011;10082;51.038;6.992;2023-07-31T11:18:12;2.97;;;2.53;;
19842;SDS011;10082;51.038;6.992;2023-07-31T11:20:39;2.75;;;2.50;;
19842;SDS011;10082;51.038;6.992;2023-07-31T11:23:09;2.88;;;2.47;;
19842;SDS011;10082;51.038;6.992;2023-07-31T11:25:40;2.45;;;2.22;;
19842;SDS011;10082;51.038;6.992;2023-07-31T11:28:13;3.55;;;1.95;;
19842;SDS011;10082;51.038;6.992;2023-07-31T11:30:42;2.47;;;1.80;;
19842;SDS011;10082;51.038;6.992;2023-07-31T11:33:11;1.70;;;1.40;;
19842;SDS011;10082;51.038;6.992;2023-07-31T11:35:44;1.83;;;1.67;;
19842;SDS011;10082;51.038;6.992;2023-07-31T11:38:20;1.52;;;1.42;;
19842;SDS011;10082;51.038;6.992;2023-07-31T11:40:49;3.63;;;1.42;;
19842;SDS011;10082;51.038;6.992;2023-07-31T11:43:22;1.42;;;0.95;;
19842;SDS011;10082;51.038;6.992;2023-07-31T11:45:50;2.10;;;1.20;;
19842;SDS011;10082;51.038;6.992;2023-07-31T11:48:20;1.80;;;1.17;;
19842;SDS011;10082;51.038;6.992;2023-07-31T11:50:49;1.20;;;1.10;;
19842;SDS011;10082;51.038;6.992;2023-07-31T11:53:18;1.10;;;1.00;;
19842;SDS011;10082;51.038;6.992;2023-07-31T11:55:48;1.48;;;0.80;;
19842;SDS011;10082;51.038;6.992;2023-07-31T11:58:16;0.93;;;0.82;;
19842;SDS011;10082;51.038;6.992;2023-07-31T12:00:46;2.90;;;0.90;;
19842;SDS011;10082;51.038;6.992;2023-07-31T12:03:15;1.20;;;0.82;;
19842;SDS011;10082;51.038;6.992;2023-07-31T12:05:42;0.80;;;0.80;;
19842;SDS011;10082;51.038;6.992;2023-07-31T12:08:10;0.98;;;0.80;;
19842;SDS011;10082;51.038;6.992;2023-07-31T12:10:38;1.35;;;0.90;;
19842;SDS011;10082;51.038;6.992;2023-07-31T12:13:08;1.90;;;0.90;;
19842;SDS011;10082;51.038;6.992;2023-07-31T12:15:39;1.88;;;1.00;;
19842;SDS011;10082;51.038;6.992;2023-07-31T12:18:09;2.17;;;1.17;;
19842;SDS011;10082;51.038;6.992;2023-07-31T12:20:42;1.05;;;1.00;;
19842;SDS011;10082;51.038;6.992;2023-07-31T12:23:13;1.83;;;1.52;;
19842;SDS011;10082;51.038;6.992;2023-07-31T12:25:41;2.55;;;1.20;;
19842;SDS011;10082;51.038;6.992;2023-07-31T12:28:09;1.30;;;1.20;;
19842;SDS011;10082;51.038;6.992;2023-07-31T12:30:38;1.40;;;1.30;;
19842;SDS011;10082;51.038;6.992;2023-07-31T12:33:12;1.50;;;1.10;;
19842;SDS011;10082;51.038;6.992;2023-07-31T12:35:46;3.55;;;1.75;;
19842;SDS011;10082;51.038;6.992;2023-07-31T12:38:14;3.92;;;1.90;;
19842;SDS011;10082;51.038;6.992;2023-07-31T12:40:41;3.20;;;2.20;;
19842;SDS011;10082;51.038;6.992;2023-07-31T12:43:09;1.85;;;1.73;;
19842;SDS011;10082;51.038;6.992;2023-07-31T12:45:36;2.15;;;1.95;;
19842;SDS011;10082;51.038;6.992;2023-07-31T12:48:03;2.60;;;1.52;;
19842;SDS011;10082;51.038;6.992;2023-07-31T12:50:32;2.10;;;1.90;;
19842;SDS011;10082;51.038;6.992;2023-07-31T12:53:02;2.30;;;1.77;;
19842;SDS011;10082;51.038;6.992;2023-07-31T12:55:30;3.95;;;2.03;;
19842;SDS011;10082;51.038;6.992;2023-07-31T12:57:59;2.72;;;2.10;;
19842;SDS011;10082;51.038;6.992;2023-07-31T13:00:26;2.72;;;2.03;;
19842;SDS011;10082;51.038;6.992;2023-07-31T13:02:54;4.07;;;2.17;;
19842;SDS011;10082;51.038;6.992;2023-07-31T13:08:03;1.98;;;1.77;;
19842;SDS011;10082;51.038;6.992;2023-07-31T13:10:30;3.72;;;2.30;;
19842;SDS011;10082;51.038;6.992;2023-07-31T13:12:58;2.65;;;2.10;;
19842;SDS011;10082;51.038;6.992;2023-07-31T13:15:25;3.75;;;2.30;;
19842;SDS011;10082;51.038;6.992;2023-07-31T13:17:52;2.95;;;2.05;;
19842;SDS011;10082;51.038;6.992;2023-07-31T13:20:20;3.40;;;2.15;;
19842;SDS011;10082;51.038;6.992;2023-07-31T13:22:49;2.90;;;2.30;;
19842;SDS011;10082;51.038;6.992;2023-07-31T13:25:17;2.50;;;2.30;;
19842;SDS011;10082;51.038;6.992;2023-07-31T13:27:47;4.05;;;2.17;;
19842;SDS011;10082;51.038;6.992;2023-07-31T13:30:14;2.25;;;2.05;;
19842;SDS011;10082;51.038;6.992;2023-07-31T13:32:42;2.30;;;2.10;;
19842;SDS011;10082;51.038;6.992;2023-07-31T13:35:09;2.92;;;2.60;;
19842;SDS011;10082;51.038;6.992;2023-07-31T13:37:37;2.33;;;2.13;;
19842;SDS011;10082;51.038;6.992;2023-07-31T13:40:08;2.33;;;2.13;;
19842;SDS011;10082;51.038;6.992;2023-07-31T13:42:36;2.38;;;2.15;;
19842;SDS011;10082;51.038;6.992;2023-07-31T13:45:04;2.40;;;2.20;;
19842;SDS011;10082;51.038;6.992;2023-07-31T13:47:32;3.03;;;2.20;;
19842;SDS011;10082;51.038;6.992;2023-07-31T13:50:00;2.80;;;2.38;;
19842;SDS011;10082;51.038;6.992;2023-07-31T13:52:28;3.33;;;2.47;;
19842;SDS011;10082;51.038;6.992;2023-07-31T13:54:55;3.58;;;2.63;;
19842;SDS011;10082;51.038;6.992;2023-07-31T13:57:24;3.08;;;2.33;;
19842;SDS011;10082;51.038;6.992;2023-07-31T13:59:51;3.08;;;2.35;;
19842;SDS011;10082;51.038;6.992;2023-07-31T14:02:19;2.83;;;2.38;;
19842;SDS011;10082;51.038;6.992;2023-07-31T14:04:46;2.40;;;2.20;;
19842;SDS011;10082;51.038;6.992;2023-07-31T14:07:13;2.80;;;2.33;;
19842;SDS011;10082;51.038;6.992;2023-07-31T14:09:43;2.53;;;2.33;;
19842;SDS011;10082;51.038;6.992;2023-07-31T14:12:15;2.22;;;2.10;;
19842;SDS011;10082;51.038;6.992;2023-07-31T14:14:44;2.92;;;2.40;;
19842;SDS011;10082;51.038;6.992;2023-07-31T14:17:11;2.40;;;2.17;;
19842;SDS011;10082;51.038;6.992;2023-07-31T14:19:39;2.22;;;2.03;;
19842;SDS011;10082;51.038;6.992;2023-07-31T14:22:06;4.07;;;2.45;;
19842;SDS011;10082;51.038;6.992;2023-07-31T14:24:35;2.50;;;2.30;;
19842;SDS011;10082;51.038;6.992;2023-07-31T14:27:02;6.30;;;4.00;;
19842;SDS011;10082;51.038;6.992;2023-07-31T14:29:30;4.80;;;3.17;;
19842;SDS011;10082;51.038;6.992;2023-07-31T14:31:59;2.78;;;2.40;;
19842;SDS011;10082;51.038;6.992;2023-07-31T14:34:26;2.50;;;2.30;;
19842;SDS011;10082;51.038;6.992;2023-07-31T14:36:54;2.78;;;2.47;;
19842;SDS011;10082;51.038;6.992;2023-07-31T14:39:21;3.13;;;2.40;;
19842;SDS011;10082;51.038;6.992;2023-07-31T14:41:48;3.03;;;2.45;;
19842;SDS011;10082;51.038;6.992;2023-07-31T14:44:15;2.78;;;2.38;;
19842;SDS011;10082;51.038;6.992;2023-07-31T14:46:42;2.58;;;2.38;;
19842;SDS011;10082;51.038;6.992;2023-07-31T14:49:11;3.20;;;2.78;;
19842;SDS011;10082;51.038;6.992;2023-07-31T14:51:39;2.80;;;2.50;;
19842;SDS011;10082;51.038;6.992;2023-07-31T14:54:06;2.67;;;2.47;;
19842;SDS011;10082;51.038;6.992;2023-07-31T14:56:34;3.25;;;2.50;;
19842;SDS011;10082;51.038;6.992;2023-07-31T14:59:01;3.03;;;2.47;;
19842;SDS011;10082;51.038;6.992;2023-07-31T15:01:28;2.53;;;2.33;;
19842;SDS011;10082;51.038;6.992;2023-07-31T15:03:56;2.88;;;2.58;;